Time;durP1;ratioP1;P1;durP2;ratioP2;P2;SDS_P1;SDS_P2;PMS_P1;PMS_P2;Temp;Humidity;BMP_temperature;BMP_pressure;BME280_temperature;BME280_humidity;BME280_pressure;Samples;Min_cycle;Max_cycle;Signal;HPM_P1;HPM_P2
2020/12/26 00:04:36;;;;;;;37.85;18.00;;;1.20;99.90;;;;;;12378083;28;20101;-84
2020/12/26 00:10:38;;;;;;;29.35;14.43;;;1.20;99.90;;;;;;12367328;28;20160;-84
2020/12/26 00:16:39;;;;;;;33.55;14.65;;;1.30;99.90;;;;;;12371720;28;20054;-84
2020/12/26 00:22:51;;;;;;;27.92;14.00;;;1.50;99.90;;;;;;12392593;28;20073;-84
2020/12/26 00:28:52;;;;;;;27.25;15.60;;;1.40;99.90;;;;;;12379446;28;20055;-84
2020/12/26 00:34:54;;;;;;;29.02;15.38;;;1.40;99.90;;;;;;12385474;28;20080;-84
2020/12/26 00:40:55;;;;;;;30.75;15.45;;;1.40;99.90;;;;;;12372024;28;20053;-84
2020/12/26 00:46:56;;;;;;;28.20;13.70;;;1.40;99.90;;;;;;12390389;28;20434;-84
2020/12/26 00:53:12;;;;;;;25.05;13.50;;;1.40;99.90;;;;;;12368421;28;20080;-85
2020/12/26 00:59:13;;;;;;;23.38;13.35;;;1.40;99.90;;;;;;12371603;28;20418;-84
2020/12/26 01:05:15;;;;;;;25.17;13.35;;;1.50;99.90;;;;;;12358504;28;20050;-84
2020/12/26 01:11:16;;;;;;;23.30;12.82;;;1.60;99.90;;;;;;12377554;28;20369;-84
2020/12/26 01:17:17;;;;;;;22.70;11.45;;;1.80;99.90;;;;;;12365337;28;20078;-84
2020/12/26 01:23:34;;;;;;;21.48;11.13;;;1.80;99.90;;;;;;12361445;28;20046;-84
2020/12/26 01:29:36;;;;;;;25.40;11.52;;;1.50;99.90;;;;;;12384637;28;20101;-83
2020/12/26 01:35:37;;;;;;;19.67;10.77;;;1.80;99.90;;;;;;12366969;28;20051;-83
2020/12/26 01:41:38;;;;;;;16.73;10.10;;;1.90;99.90;;;;;;12367609;28;20474;-83
2020/12/26 01:47:40;;;;;;;21.40;10.88;;;1.80;99.90;;;;;;12367448;28;20100;-83
2020/12/26 01:53:50;;;;;;;18.77;10.70;;;1.60;99.90;;;;;;12376805;28;20053;-83
2020/12/26 01:59:51;;;;;;;22.80;11.95;;;1.60;99.90;;;;;;12397353;28;20057;-83
2020/12/26 02:05:54;;;;;;;22.85;12.15;;;1.70;99.90;;;;;;12389374;28;20160;-82
2020/12/26 02:11:55;;;;;;;21.95;12.35;;;1.60;99.90;;;;;;12361757;28;20097;-83
2020/12/26 02:17:57;;;;;;;25.02;11.25;;;1.60;99.90;;;;;;12388960;28;20494;-83
2020/12/26 02:24:09;;;;;;;24.65;11.32;;;1.60;99.90;;;;;;12371125;28;20557;-83
2020/12/26 02:30:10;;;;;;;14.93;10.38;;;1.60;99.90;;;;;;12388935;28;20089;-83
2020/12/26 02:36:11;;;;;;;15.07;9.52;;;1.80;99.90;;;;;;12386102;28;20078;-83
2020/12/26 02:42:13;;;;;;;21.08;10.20;;;2.00;99.90;;;;;;12360500;28;20093;-83
2020/12/26 02:48:15;;;;;;;15.98;9.00;;;2.00;99.90;;;;;;12364491;28;20117;-83
2020/12/26 02:54:27;;;;;;;18.63;8.88;;;2.00;99.90;;;;;;12368778;28;20070;-83
2020/12/26 03:00:29;;;;;;;14.90;9.20;;;2.00;99.90;;;;;;12370454;28;20050;-83
2020/12/26 03:06:31;;;;;;;13.98;9.20;;;1.90;99.90;;;;;;12390539;28;20104;-84
2020/12/26 03:12:33;;;;;;;16.05;9.05;;;1.80;99.90;;;;;;12388575;28;20082;-83
2020/12/26 03:18:34;;;;;;;13.85;8.75;;;1.80;99.90;;;;;;12355102;28;20455;-83
2020/12/26 03:24:47;;;;;;;18.17;8.50;;;1.70;99.90;;;;;;12359240;28;20148;-83
2020/12/26 03:30:49;;;;;;;13.05;8.48;;;1.90;99.90;;;;;;12357482;28;20081;-83
2020/12/26 03:36:50;;;;;;;19.27;8.48;;;2.00;99.90;;;;;;12358155;28;20340;-83
2020/12/26 03:42:51;;;;;;;15.57;8.82;;;2.00;99.90;;;;;;12354534;28;20062;-83
2020/12/26 03:48:53;;;;;;;18.67;8.10;;;2.10;99.90;;;;;;12386738;28;20068;-83
2020/12/26 03:55:05;;;;;;;12.57;8.00;;;2.00;99.90;;;;;;12368488;28;20058;-83
2020/12/26 04:01:07;;;;;;;16.40;8.07;;;2.00;99.90;;;;;;12383835;28;20085;-83
2020/12/26 04:07:08;;;;;;;19.00;9.10;;;1.90;99.90;;;;;;12376297;28;20055;-83
2020/12/26 04:13:09;;;;;;;16.05;8.63;;;1.90;99.90;;;;;;12373951;28;20057;-84
2020/12/26 04:19:11;;;;;;;14.80;8.63;;;2.00;99.90;;;;;;12384153;28;20050;-84
2020/12/26 04:25:26;;;;;;;20.55;8.88;;;1.90;99.90;;;;;;12382587;28;20103;-84
2020/12/26 04:31:27;;;;;;;14.55;6.90;;;1.80;99.90;;;;;;12375651;28;20033;-83
2020/12/26 04:37:29;;;;;;;13.27;7.18;;;1.80;99.90;;;;;;12397244;28;20056;-84
2020/12/26 04:43:31;;;;;;;11.82;7.68;;;1.90;99.90;;;;;;12355491;28;20050;-84
2020/12/26 04:49:37;;;;;;;20.48;8.13;;;1.80;99.90;;;;;;12379943;28;20179;-83
2020/12/26 04:55:49;;;;;;;12.10;7.45;;;1.80;99.90;;;;;;12365516;28;20061;-84
2020/12/26 05:01:52;;;;;;;14.02;7.38;;;1.80;99.90;;;;;;12377989;28;20085;-83
2020/12/26 05:07:53;;;;;;;11.90;6.07;;;1.90;99.90;;;;;;12370916;28;20057;-83
2020/12/26 05:13:54;;;;;;;11.32;5.63;;;1.90;99.90;;;;;;12373397;28;20051;-83
2020/12/26 05:19:56;;;;;;;10.15;5.80;;;1.90;99.90;;;;;;12384926;28;20571;-84
2020/12/26 05:26:08;;;;;;;11.68;6.97;;;1.90;99.90;;;;;;12389062;28;20108;-83
2020/12/26 05:32:14;;;;;;;13.63;6.15;;;1.80;99.90;;;;;;12395334;28;20054;-84
2020/12/26 05:38:21;;;;;;;11.90;6.40;;;1.80;99.90;;;;;;12375840;28;20065;-83
2020/12/26 05:44:31;;;;;;;12.43;7.00;;;1.80;99.90;;;;;;12391004;28;20081;-83
2020/12/26 05:50:33;;;;;;;15.00;6.85;;;1.70;99.90;;;;;;12406024;28;20050;-84
2020/12/26 05:56:36;;;;;;;9.60;6.40;;;1.70;99.90;;;;;;12400719;28;20051;-83
2020/12/26 06:02:37;;;;;;;20.40;7.50;;;1.70;99.90;;;;;;12385584;28;20038;-84
2020/12/26 06:08:39;;;;;;;18.25;8.15;;;1.60;99.90;;;;;;12385096;28;20739;-84
2020/12/26 06:14:41;;;;;;;17.50;8.77;;;1.60;99.90;;;;;;12387385;28;20454;-84
2020/12/26 06:20:43;;;;;;;16.67;9.68;;;1.50;99.90;;;;;;12393543;28;20137;-83
2020/12/26 06:26:47;;;;;;;15.57;9.43;;;1.50;99.90;;;;;;12388565;28;20054;-83
2020/12/26 06:32:51;;;;;;;16.63;9.90;;;1.60;99.90;;;;;;12377651;28;20058;-83
2020/12/26 06:38:53;;;;;;;17.38;9.68;;;1.50;99.90;;;;;;12385557;28;20069;-84
2020/12/26 06:44:54;;;;;;;17.80;9.98;;;1.50;99.90;;;;;;12386998;28;20061;-83
2020/12/26 06:50:55;;;;;;;15.82;9.88;;;1.50;99.90;;;;;;12390568;28;20051;-83
2020/12/26 06:57:01;;;;;;;20.13;9.48;;;1.50;99.90;;;;;;12383072;28;20049;-84
2020/12/26 07:03:19;;;;;;;19.80;10.25;;;1.50;99.90;;;;;;12383127;28;20061;-84
2020/12/26 07:09:44;;;;;;;16.98;10.23;;;1.50;99.90;;;;;;12393326;28;20728;-84
2020/12/26 07:15:45;;;;;;;;;;;1.40;99.90;;;;;;12394109;28;20053;-83
2020/12/26 07:22:00;;;;;;;19.95;11.07;;;1.50;99.90;;;;;;12371304;28;19933;-83
2020/12/26 07:28:02;;;;;;;17.33;10.37;;;1.50;99.90;;;;;;12365674;28;20062;-84
2020/12/26 07:34:03;;;;;;;19.52;11.32;;;1.40;99.90;;;;;;12373139;28;20274;-83
2020/12/26 07:40:06;;;;;;;20.33;11.73;;;1.40;99.90;;;;;;12390834;28;20061;-84
2020/12/26 07:46:07;;;;;;;23.73;13.93;;;1.40;99.90;;;;;;12391385;28;20057;-84
2020/12/26 07:52:09;;;;;;;28.35;13.35;;;1.50;99.90;;;;;;12433078;28;20057;-84
2020/12/26 07:58:16;;;;;;;25.38;13.85;;;1.60;99.90;;;;;;12378048;28;20054;-84
2020/12/26 08:04:18;;;;;;;20.88;14.40;;;1.80;99.90;;;;;;12387260;28;20514;-84
2020/12/26 08:10:20;;;;;;;24.85;15.65;;;1.90;99.90;;;;;;12364513;28;20478;-84
2020/12/26 08:16:21;;;;;;;24.42;15.20;;;2.00;99.90;;;;;;12368250;28;20510;-84
2020/12/26 08:22:23;;;;;;;28.70;17.38;;;2.10;99.90;;;;;;12361768;28;20039;-84
2020/12/26 08:28:26;;;;;;;26.92;17.38;;;2.10;99.90;;;;;;12384369;28;20054;-83
2020/12/26 08:34:45;;;;;;;24.75;17.35;;;2.20;99.90;;;;;;12372931;28;20458;-84
2020/12/26 08:40:56;;;;;;;22.27;16.83;;;2.30;99.90;;;;;;12354248;28;20148;-83
2020/12/26 08:46:59;;;;;;;25.80;18.23;;;2.30;99.90;;;;;;12370818;28;20090;-84
2020/12/26 08:53:08;;;;;;;26.63;16.77;;;2.40;99.90;;;;;;12369967;28;20061;-84
2020/12/26 08:59:10;;;;;;;22.40;16.38;;;2.60;99.90;;;;;;12359736;28;20444;-84
2020/12/26 09:05:25;;;;;;;23.48;16.92;;;2.60;99.90;;;;;;12387109;28;20050;-84
2020/12/26 09:11:30;;;;;;;24.92;16.40;;;2.70;99.90;;;;;;12370137;28;20053;-84
2020/12/26 09:17:31;;;;;;;27.70;16.48;;;2.70;99.90;;;;;;12372424;28;20570;-84
2020/12/26 09:23:38;;;;;;;25.20;18.50;;;2.80;99.90;;;;;;12391907;28;20050;-84
2020/12/26 09:29:39;;;;;;;41.65;22.23;;;2.90;99.90;;;;;;12372230;28;20414;-85
2020/12/26 09:35:40;;;;;;;32.42;22.63;;;2.90;99.90;;;;;;12353345;28;20066;-85
2020/12/26 09:41:46;;;;;;;34.90;22.48;;;3.10;99.90;;;;;;12353662;28;20088;-84
2020/12/26 09:47:47;;;;;;;33.42;21.38;;;3.00;99.90;;;;;;12389054;28;20057;-84
2020/12/26 09:53:49;;;;;;;29.80;20.15;;;3.10;99.90;;;;;;12388086;28;20494;-85
2020/12/26 09:59:50;;;;;;;31.42;20.73;;;3.20;99.90;;;;;;12377573;28;20065;-84
2020/12/26 10:05:52;;;;;;;28.00;17.88;;;3.20;99.90;;;;;;12380743;28;20350;-84
2020/12/26 10:11:53;;;;;;;25.48;18.50;;;3.30;99.90;;;;;;12375515;28;20057;-84
2020/12/26 10:17:54;;;;;;;30.83;18.30;;;3.30;99.90;;;;;;12367179;28;20042;-84
2020/12/26 10:23:55;;;;;;;31.98;20.83;;;3.40;99.90;;;;;;12397599;28;20057;-85
2020/12/26 10:29:57;;;;;;;31.00;18.50;;;3.40;99.90;;;;;;12375145;28;20053;-84
2020/12/26 10:35:58;;;;;;;32.53;19.50;;;3.40;99.90;;;;;;12397899;28;20038;-84
2020/12/26 10:42:00;;;;;;;32.88;19.30;;;3.40;99.90;;;;;;12394137;28;20046;-84
2020/12/26 10:48:01;;;;;;;29.40;18.25;;;3.40;99.90;;;;;;12377789;28;20046;-85
2020/12/26 10:54:03;;;;;;;27.85;17.45;;;3.40;99.90;;;;;;12366301;28;20058;-84
2020/12/26 11:00:04;;;;;;;26.92;17.05;;;3.50;99.90;;;;;;12390564;28;20046;-84
2020/12/26 11:06:06;;;;;;;28.65;16.48;;;3.50;99.90;;;;;;12389652;28;20058;-85
2020/12/26 11:12:07;;;;;;;23.60;16.00;;;3.50;99.90;;;;;;12419395;28;20043;-85
2020/12/26 11:18:08;;;;;;;22.45;15.10;;;3.50;99.90;;;;;;12393867;28;20466;-84
2020/12/26 11:24:11;;;;;;;22.02;14.45;;;3.50;99.90;;;;;;12394218;28;20046;-84
2020/12/26 11:30:12;;;;;;;23.30;13.77;;;3.60;99.90;;;;;;12397317;28;20083;-83
2020/12/26 11:36:32;;;;;;;19.80;12.75;;;4.00;99.90;;;;;;12369796;28;20082;-83
2020/12/26 11:42:35;;;;;;;19.48;11.73;;;4.00;99.90;;;;;;12373443;28;20053;-84
2020/12/26 11:48:36;;;;;;;18.85;11.88;;;3.90;99.90;;;;;;12395416;28;20144;-84
2020/12/26 11:54:38;;;;;;;14.90;9.20;;;3.90;99.90;;;;;;12381412;28;20054;-83
2020/12/26 12:00:39;;;;;;;16.98;9.63;;;3.80;99.90;;;;;;12384906;28;20042;-84
2020/12/26 12:06:40;;;;;;;16.63;8.70;;;3.90;99.90;;;;;;12356527;28;20066;-84
2020/12/26 12:12:42;;;;;;;17.23;8.88;;;4.00;99.90;;;;;;12376413;28;20057;-85
2020/12/26 12:18:44;;;;;;;14.55;8.23;;;4.00;99.90;;;;;;12379143;28;20050;-83
2020/12/26 12:24:45;;;;;;;16.88;7.63;;;4.10;99.90;;;;;;12378448;28;20077;-84
2020/12/26 12:30:46;;;;;;;14.60;7.70;;;4.10;99.90;;;;;;12363634;28;20077;-84
2020/12/26 12:36:48;;;;;;;12.32;7.60;;;3.90;99.90;;;;;;12371908;28;20088;-84
2020/12/26 12:42:50;;;;;;;17.58;8.07;;;3.90;99.90;;;;;;12348832;28;20639;-83
2020/12/26 12:48:51;;;;;;;13.25;6.88;;;4.00;99.90;;;;;;12368030;28;20145;-83
2020/12/26 12:54:52;;;;;;;13.40;7.70;;;4.10;99.90;;;;;;12360350;28;20061;-84
2020/12/26 13:00:59;;;;;;;12.00;7.00;;;4.20;99.90;;;;;;12392422;28;20051;-83
2020/12/26 13:07:01;;;;;;;10.18;5.85;;;4.30;99.90;;;;;;12361586;28;20436;-83
2020/12/26 13:13:03;;;;;;;12.82;6.45;;;4.20;99.90;;;;;;12383201;28;20066;-84
2020/12/26 13:19:04;;;;;;;9.18;5.93;;;4.10;99.90;;;;;;12370530;28;20100;-83
2020/12/26 13:25:07;;;;;;;10.82;6.30;;;4.10;99.90;;;;;;12394756;28;20061;-84
2020/12/26 13:31:30;;;;;;;14.00;6.03;;;4.10;99.90;;;;;;12375764;28;20436;-83
2020/12/26 13:37:31;;;;;;;9.25;6.35;;;4.10;99.90;;;;;;12393967;28;20078;-84
2020/12/26 13:43:32;;;;;;;11.68;5.97;;;4.10;99.90;;;;;;12404011;28;20046;-84
2020/12/26 13:49:34;;;;;;;11.15;5.50;;;4.00;99.90;;;;;;12406192;28;20053;-83
2020/12/26 13:55:35;;;;;;;10.75;5.13;;;3.90;99.90;;;;;;12368904;28;20053;-84
2020/12/26 14:01:45;;;;;;;10.52;5.65;;;3.90;99.90;;;;;;12380077;28;20045;-83
2020/12/26 14:07:46;;;;;;;9.93;4.95;;;4.00;99.90;;;;;;12386910;28;20062;-83
2020/12/26 14:13:48;;;;;;;12.95;6.13;;;3.90;99.90;;;;;;12394196;28;20121;-83
2020/12/26 14:19:50;;;;;;;10.68;4.05;;;3.90;99.90;;;;;;12395489;28;20058;-83
2020/12/26 14:25:55;;;;;;;8.50;3.65;;;3.90;99.90;;;;;;12410933;28;20054;-83
2020/12/26 14:31:57;;;;;;;7.20;3.50;;;3.90;99.90;;;;;;12403368;28;20370;-83
2020/12/26 14:37:59;;;;;;;6.22;3.85;;;3.90;99.90;;;;;;12380556;28;20149;-83
2020/12/26 14:44:03;;;;;;;5.40;2.87;;;4.00;99.90;;;;;;12370529;28;20050;-83
2020/12/26 14:50:04;;;;;;;7.45;3.10;;;3.90;99.90;;;;;;12372011;28;20430;-83
2020/12/26 14:56:09;;;;;;;7.72;2.92;;;3.90;99.90;;;;;;12381783;28;20058;-83
2020/12/26 15:02:19;;;;;;;6.00;2.80;;;3.90;99.90;;;;;;12370253;28;20065;-83
2020/12/26 15:08:20;;;;;;;7.78;3.05;;;3.80;99.90;;;;;;12377292;28;20069;-82
2020/12/26 15:14:22;;;;;;;6.53;2.75;;;3.80;99.90;;;;;;12388099;28;20077;-83
2020/12/26 15:20:23;;;;;;;5.72;2.70;;;3.70;99.90;;;;;;12397080;28;20096;-83
2020/12/26 15:26:24;;;;;;;5.65;3.35;;;3.70;99.90;;;;;;12379883;28;20058;-83
2020/12/26 15:32:37;;;;;;;4.60;2.47;;;3.60;99.90;;;;;;12387847;28;20046;-84
2020/12/26 15:38:38;;;;;;;5.35;2.55;;;3.70;99.90;;;;;;12390396;28;20142;-83
2020/12/26 15:44:39;;;;;;;4.57;2.63;;;3.60;99.90;;;;;;12387908;28;20046;-83
2020/12/26 15:50:41;;;;;;;5.20;2.92;;;3.60;99.90;;;;;;12369201;28;20053;-83
2020/12/26 15:56:42;;;;;;;5.13;2.03;;;3.60;99.90;;;;;;12362717;28;20088;-82
2020/12/26 16:02:57;;;;;;;4.67;2.20;;;3.60;99.90;;;;;;12385601;28;20054;-82
2020/12/26 16:08:58;;;;;;;3.80;2.00;;;3.70;99.90;;;;;;12385055;28;20068;-83
2020/12/26 16:15:00;;;;;;;4.82;1.98;;;3.70;99.90;;;;;;12366768;28;20104;-83
2020/12/26 16:21:03;;;;;;;5.80;2.60;;;3.60;99.90;;;;;;12378276;28;20085;-84
2020/12/26 16:27:05;;;;;;;4.43;2.17;;;3.50;99.90;;;;;;12390669;28;20110;-83
2020/12/26 16:33:18;;;;;;;4.55;2.83;;;3.50;99.90;;;;;;12385073;28;20212;-83
2020/12/26 16:39:19;;;;;;;6.03;3.35;;;3.60;99.90;;;;;;12381516;28;20053;-83
2020/12/26 16:45:20;;;;;;;6.07;2.17;;;3.60;99.90;;;;;;12368305;28;20054;-83
2020/12/26 16:51:24;;;;;;;6.97;3.10;;;3.60;99.90;;;;;;12384185;28;20060;-83
2020/12/26 16:57:28;;;;;;;4.78;2.25;;;3.60;99.90;;;;;;12361209;28;20058;-83
2020/12/26 17:03:37;;;;;;;4.65;2.35;;;3.60;99.90;;;;;;12372691;28;20043;-83
2020/12/26 17:09:38;;;;;;;4.43;2.00;;;3.70;99.90;;;;;;12389262;28;20062;-83
2020/12/26 17:15:41;;;;;;;5.97;2.13;;;3.70;99.90;;;;;;12376273;28;20046;-83
2020/12/26 17:21:42;;;;;;;5.50;2.10;;;3.70;99.90;;;;;;12360204;28;20080;-83
2020/12/26 17:27:44;;;;;;;8.90;2.00;;;3.70;99.90;;;;;;12376481;28;20208;-83
2020/12/26 17:33:53;;;;;;;6.63;2.00;;;3.70;99.90;;;;;;12375325;28;20515;-83
2020/12/26 17:39:55;;;;;;;5.53;2.33;;;3.80;99.90;;;;;;12381582;28;20057;-82
2020/12/26 17:45:56;;;;;;;3.80;1.75;;;3.80;99.90;;;;;;12368004;28;20061;-83
2020/12/26 17:51:59;;;;;;;5.50;1.88;;;3.80;99.90;;;;;;12403125;28;20034;-83
2020/12/26 17:58:00;;;;;;;9.63;3.15;;;3.80;99.90;;;;;;12398902;28;20054;-83
2020/12/26 18:04:11;;;;;;;3.55;1.67;;;3.80;99.90;;;;;;12375486;28;20058;-84
2020/12/26 18:10:13;;;;;;;2.78;1.42;;;3.80;99.90;;;;;;12345312;28;20116;-84
2020/12/26 18:16:15;;;;;;;3.00;1.50;;;3.80;99.90;;;;;;12349408;28;20045;-83
2020/12/26 18:22:16;;;;;;;3.30;1.80;;;3.80;99.90;;;;;;12352927;28;20082;-83
2020/12/26 18:28:17;;;;;;;2.63;1.40;;;3.80;99.90;;;;;;12372445;28;20477;-83
2020/12/26 18:34:30;;;;;;;3.42;1.55;;;3.80;99.90;;;;;;12378522;28;20069;-83
2020/12/26 18:40:32;;;;;;;3.28;1.92;;;3.80;99.90;;;;;;12366843;28;20578;-83
2020/12/26 18:46:33;;;;;;;3.35;1.55;;;3.80;99.90;;;;;;12379110;28;20092;-83
2020/12/26 18:52:35;;;;;;;3.08;1.58;;;3.80;99.90;;;;;;12362644;28;20488;-83
2020/12/26 18:58:36;;;;;;;3.40;1.40;;;3.80;99.90;;;;;;12380611;28;20077;-83
2020/12/26 19:04:49;;;;;;;3.03;1.50;;;3.80;99.90;;;;;;12351270;28;20526;-82
2020/12/26 19:10:51;;;;;;;3.03;1.20;;;3.80;99.90;;;;;;12375148;28;20394;-84
2020/12/26 19:16:52;;;;;;;2.67;1.30;;;3.80;99.90;;;;;;12369213;28;20054;-83
2020/12/26 19:22:54;;;;;;;5.07;1.23;;;3.80;99.90;;;;;;12381635;28;20053;-83
2020/12/26 19:28:56;;;;;;;4.72;2.35;;;3.80;99.90;;;;;;12364396;28;20050;-83
2020/12/26 19:35:10;;;;;;;4.82;1.25;;;3.80;99.90;;;;;;12372152;28;20403;-83
2020/12/26 19:41:11;;;;;;;3.10;1.52;;;3.80;99.90;;;;;;12372193;28;20088;-83
2020/12/26 19:47:13;;;;;;;3.13;1.33;;;3.80;99.90;;;;;;12370248;28;20058;-84
2020/12/26 19:53:14;;;;;;;2.25;1.33;;;3.80;99.90;;;;;;12383217;28;20083;-83
2020/12/26 19:59:16;;;;;;;2.42;1.33;;;3.60;99.90;;;;;;12370517;28;20081;-83
2020/12/26 20:05:28;;;;;;;3.03;1.67;;;3.60;99.90;;;;;;12354844;28;20156;-83
2020/12/26 20:11:29;;;;;;;2.88;1.48;;;3.60;99.90;;;;;;12344806;28;20181;-84
2020/12/26 20:17:31;;;;;;;3.25;1.42;;;3.50;99.90;;;;;;12369234;28;20042;-83
2020/12/26 20:23:33;;;;;;;2.42;1.50;;;3.50;99.90;;;;;;12380042;28;20492;-83
2020/12/26 20:29:34;;;;;;;4.00;1.70;;;3.50;99.90;;;;;;12385629;28;20088;-83
2020/12/26 20:35:47;;;;;;;3.83;1.85;;;3.40;99.90;;;;;;12377827;28;20046;-84
2020/12/26 20:41:48;;;;;;;3.28;1.60;;;3.40;99.90;;;;;;12390811;28;20085;-83
2020/12/26 20:47:50;;;;;;;2.47;1.55;;;3.40;99.90;;;;;;12389840;28;20743;-84
2020/12/26 20:53:51;;;;;;;6.63;2.40;;;3.40;99.90;;;;;;12376649;28;20486;-83
2020/12/26 20:59:52;;;;;;;3.97;2.15;;;3.50;99.90;;;;;;12389194;28;20058;-84
2020/12/26 21:06:08;;;;;;;4.15;2.20;;;3.50;99.90;;;;;;12363263;28;20103;-84
2020/12/26 21:12:09;;;;;;;5.75;2.63;;;3.60;99.90;;;;;;12388413;28;20051;-83
2020/12/26 21:18:11;;;;;;;4.53;2.10;;;3.60;99.90;;;;;;12365105;28;20050;-84
2020/12/26 21:24:13;;;;;;;7.72;3.83;;;3.60;99.90;;;;;;12394125;28;20181;-83
2020/12/26 21:30:14;;;;;;;3.92;2.22;;;3.50;99.90;;;;;;12428986;28;20057;-83
2020/12/26 21:36:35;;;;;;;6.50;2.88;;;3.40;99.90;;;;;;12382386;28;20043;-83
2020/12/26 21:42:37;;;;;;;3.22;1.90;;;3.50;99.90;;;;;;12377364;28;20486;-83
2020/12/26 21:48:38;;;;;;;4.60;2.90;;;3.40;99.90;;;;;;12369305;28;20056;-83
2020/12/26 21:54:39;;;;;;;4.78;2.70;;;3.30;99.90;;;;;;12360828;28;20089;-83
2020/12/26 22:00:41;;;;;;;4.10;2.33;;;3.30;99.90;;;;;;12382489;28;20053;-84
2020/12/26 22:06:47;;;;;;;5.20;2.80;;;3.30;99.90;;;;;;12395645;28;20509;-84
2020/12/26 22:12:49;;;;;;;4.65;2.00;;;3.30;99.90;;;;;;12381999;28;20052;-84
2020/12/26 22:18:50;;;;;;;6.63;3.90;;;3.30;99.90;;;;;;12395833;28;20891;-83
2020/12/26 22:24:52;;;;;;;3.50;2.53;;;3.20;99.90;;;;;;12385473;28;20042;-83
2020/12/26 22:30:54;;;;;;;5.55;2.55;;;3.20;99.90;;;;;;12361933;28;20510;-84
2020/12/26 22:37:10;;;;;;;3.83;2.55;;;3.30;99.90;;;;;;12386052;28;20047;-83
2020/12/26 22:43:12;;;;;;;3.83;2.35;;;3.30;99.90;;;;;;12398727;28;20042;-84
2020/12/26 22:49:13;;;;;;;6.93;2.40;;;3.30;99.90;;;;;;12403116;28;20054;-84
2020/12/26 22:55:15;;;;;;;5.53;2.50;;;3.30;99.90;;;;;;12363786;28;20058;-84
2020/12/26 23:01:16;;;;;;;5.75;2.58;;;3.30;99.90;;;;;;12371178;28;20053;-83
2020/12/26 23:07:27;;;;;;;6.65;2.75;;;3.30;99.90;;;;;;12389869;28;20050;-83
2020/12/26 23:13:29;;;;;;;3.50;2.25;;;3.30;99.90;;;;;;12385055;28;20053;-83
2020/12/26 23:19:31;;;;;;;6.95;2.40;;;3.30;99.90;;;;;;12375472;28;20046;-85
2020/12/26 23:25:32;;;;;;;3.47;1.98;;;3.30;99.90;;;;;;12380824;28;20077;-83
2020/12/26 23:31:33;;;;;;;4.45;2.20;;;3.40;99.90;;;;;;12389832;28;20080;-83
2020/12/26 23:37:48;;;;;;;4.32;2.00;;;3.40;99.90;;;;;;12384031;28;20746;-83
2020/12/26 23:43:49;;;;;;;3.05;1.88;;;3.50;99.90;;;;;;12386327;28;20057;-84
2020/12/26 23:49:51;;;;;;;4.60;1.60;;;3.50;99.90;;;;;;12370345;28;20497;-85
2020/12/26 23:55:53;;;;;;;17.30;2.22;;;3.50;99.90;;;;;;12380166;28;20088;-82
